createdAt,value
2018-11-25T00:00:39.231Z,97.40
2018-11-25T00:03:08.734Z,97.50
2018-11-25T00:05:38.280Z,97.60
2018-11-25T00:08:08.133Z,97.60
2018-11-25T00:10:37.515Z,97.70
2018-11-25T00:13:07.200Z,97.70
2018-11-25T00:15:36.650Z,97.60
2018-11-25T00:18:06.342Z,97.60
2018-11-25T00:20:35.908Z,97.50
2018-11-25T00:23:05.623Z,97.50
2018-11-25T00:25:35.078Z,97.40
2018-11-25T00:28:04.594Z,97.40
2018-11-25T00:30:34.157Z,97.30
2018-11-25T00:33:03.664Z,97.10
2018-11-25T00:35:33.182Z,97.10
2018-11-25T00:38:02.669Z,97.00
2018-11-25T00:40:32.298Z,97.00
2018-11-25T00:43:01.710Z,96.90
2018-11-25T00:45:31.197Z,97.00
2018-11-25T00:48:00.542Z,97.00
2018-11-25T00:50:30.066Z,96.90
2018-11-25T00:52:59.495Z,96.80
2018-11-25T00:55:29.011Z,97.00
2018-11-25T00:57:58.472Z,97.00
2018-11-25T01:00:28.075Z,96.90
2018-11-25T01:02:57.537Z,97.00
2018-11-25T01:05:26.926Z,97.00
2018-11-25T01:07:56.470Z,97.10
2018-11-25T01:10:26.097Z,97.10
2018-11-25T01:12:55.739Z,97.10
2018-11-25T01:15:25.182Z,97.10
2018-11-25T01:17:54.681Z,97.10
2018-11-25T01:20:24.231Z,97.10
2018-11-25T01:22:53.781Z,97.20
2018-11-25T01:25:23.171Z,97.20
2018-11-25T01:27:52.803Z,97.10
2018-11-25T01:30:22.242Z,97.10
2018-11-25T01:32:51.789Z,97.20
2018-11-25T01:35:21.291Z,97.20
2018-11-25T01:37:50.718Z,97.20
2018-11-25T01:40:20.122Z,97.30
2018-11-25T01:42:49.781Z,97.30
2018-11-25T01:45:19.295Z,97.30
2018-11-25T01:47:48.840Z,97.30
2018-11-25T01:50:19.022Z,97.30
2018-11-25T01:52:48.834Z,97.20
2018-11-25T01:55:19.153Z,97.20
2018-11-25T01:57:48.765Z,97.10
2018-11-25T02:00:20.048Z,97.00
2018-11-25T02:02:49.798Z,97.00
2018-11-25T02:05:19.526Z,96.90
2018-11-25T02:07:49.054Z,96.80
2018-11-25T02:10:19.544Z,96.70
2018-11-25T02:12:49.107Z,96.80
2018-11-25T02:15:18.802Z,96.70
2018-11-25T02:17:48.269Z,96.70
2018-11-25T02:20:21.693Z,96.70
2018-11-25T02:22:51.938Z,96.90
2018-11-25T02:25:21.601Z,96.60
2018-11-25T02:27:51.131Z,96.50
2018-11-25T02:30:20.623Z,96.60
2018-11-25T02:32:50.201Z,96.60
2018-11-25T02:35:19.878Z,96.50
2018-11-25T02:37:49.447Z,96.60
2018-11-25T02:40:19.124Z,96.70
2018-11-25T02:42:48.765Z,96.70
2018-11-25T02:45:19.061Z,96.60
2018-11-25T02:47:48.488Z,96.70
2018-11-25T02:50:27.890Z,96.80
2018-11-25T02:53:00.245Z,96.80
2018-11-25T02:55:29.784Z,96.80
2018-11-25T02:57:59.228Z,96.60
2018-11-25T03:00:28.978Z,96.80
2018-11-25T03:02:58.398Z,96.80
2018-11-25T03:05:27.843Z,96.70
2018-11-25T03:07:57.169Z,96.70
2018-11-25T03:10:26.785Z,96.60
2018-11-25T03:12:56.403Z,96.30
2018-11-25T03:15:25.834Z,96.50
2018-11-25T03:17:55.265Z,96.40
2018-11-25T03:20:24.812Z,96.50
2018-11-25T03:22:54.235Z,96.50
2018-11-25T03:25:23.668Z,96.60
2018-11-25T03:27:53.411Z,96.50
2018-11-25T03:30:23.084Z,96.20
2018-11-25T03:32:53.605Z,96.30
2018-11-25T03:35:23.121Z,96.20
2018-11-25T03:37:52.620Z,96.20
2018-11-25T03:40:21.963Z,96.20
2018-11-25T03:42:51.373Z,96.40
2018-11-25T03:45:21.800Z,96.30
2018-11-25T03:47:51.439Z,96.30
2018-11-25T03:50:20.961Z,96.40
2018-11-25T03:52:50.571Z,96.40
2018-11-25T03:55:20.114Z,96.20
2018-11-25T03:57:49.655Z,96.30
2018-11-25T04:00:21.755Z,96.20
2018-11-25T04:02:52.347Z,96.00
2018-11-25T04:05:21.977Z,96.10
2018-11-25T04:07:51.682Z,96.00
2018-11-25T04:10:21.242Z,96.10
2018-11-25T04:12:51.122Z,96.10
2018-11-25T04:15:20.810Z,96.30
2018-11-25T04:17:50.502Z,96.30
2018-11-25T04:20:20.807Z,96.30
2018-11-25T04:22:50.735Z,96.40
2018-11-25T04:25:20.373Z,96.40
2018-11-25T04:27:49.946Z,96.40
2018-11-25T04:30:19.992Z,96.20
2018-11-25T04:32:50.211Z,96.30
2018-11-25T04:35:19.599Z,96.50
2018-11-25T04:37:49.064Z,96.50
2018-11-25T04:40:19.243Z,96.50
2018-11-25T04:42:48.757Z,96.80
2018-11-25T04:45:18.809Z,96.80
2018-11-25T04:47:48.513Z,96.80
2018-11-25T04:50:20.617Z,96.50
2018-11-25T04:52:50.329Z,96.10
2018-11-25T04:55:19.913Z,95.70
2018-11-25T04:57:52.911Z,95.90
2018-11-25T05:00:22.724Z,95.90
2018-11-25T05:02:52.737Z,96.00
2018-11-25T05:05:22.327Z,96.00
2018-11-25T05:07:51.863Z,96.10
2018-11-25T05:10:21.293Z,96.00
2018-11-25T05:12:50.753Z,95.90
2018-11-25T05:15:22.081Z,96.00
2018-11-25T05:17:51.853Z,96.10
2018-11-25T05:20:21.638Z,95.90
2018-11-25T05:22:51.159Z,95.80
2018-11-25T05:25:21.046Z,95.90
2018-11-25T05:27:50.632Z,96.00
2018-11-25T05:30:20.786Z,95.90
2018-11-25T05:32:50.398Z,96.00
2018-11-25T05:35:20.847Z,96.10
2018-11-25T05:37:50.632Z,96.00
2018-11-25T05:40:20.034Z,96.00
2018-11-25T05:42:51.009Z,95.90
2018-11-25T05:45:21.203Z,95.80
2018-11-25T05:47:50.596Z,96.10
2018-11-25T05:50:20.565Z,96.00
2018-11-25T05:52:50.102Z,96.10
2018-11-25T05:55:19.562Z,96.10
2018-11-25T05:57:49.080Z,96.20
2018-11-25T06:00:32.784Z,96.30
2018-11-25T06:03:02.390Z,96.40
2018-11-25T06:05:31.838Z,96.30
2018-11-25T06:08:02.321Z,96.20
2018-11-25T06:10:31.878Z,96.30
2018-11-25T06:13:01.292Z,96.40
2018-11-25T06:15:30.711Z,96.30
2018-11-25T06:18:02.598Z,96.30
2018-11-25T06:20:32.186Z,96.30
2018-11-25T06:23:01.769Z,96.40
2018-11-25T06:25:31.364Z,96.30
2018-11-25T06:28:00.883Z,96.30
2018-11-25T06:30:30.317Z,96.20
2018-11-25T06:32:59.757Z,96.20
2018-11-25T06:35:29.374Z,96.10
2018-11-25T06:37:58.985Z,96.10
2018-11-25T06:40:28.463Z,96.20
2018-11-25T06:42:58.007Z,96.30
2018-11-25T06:45:28.703Z,96.20
2018-11-25T06:47:58.870Z,96.00
2018-11-25T06:50:28.425Z,96.00
2018-11-25T06:52:58.082Z,96.00
2018-11-25T06:55:27.465Z,96.30
2018-11-25T06:57:56.874Z,96.30
2018-11-25T07:00:26.691Z,96.10
2018-11-25T07:02:56.207Z,96.20
2018-11-25T07:05:25.720Z,96.30
2018-11-25T07:07:55.057Z,96.10
2018-11-25T07:10:24.694Z,96.20
2018-11-25T07:12:55.139Z,96.00
2018-11-25T07:15:24.819Z,95.60
2018-11-25T07:17:54.255Z,95.70
2018-11-25T07:20:23.785Z,95.90
2018-11-25T07:22:54.304Z,95.90
2018-11-25T07:25:24.026Z,95.90
2018-11-25T07:27:54.096Z,95.50
2018-11-25T07:30:28.631Z,95.40
2018-11-25T07:32:58.258Z,95.50
2018-11-25T07:35:28.379Z,95.30
2018-11-25T07:37:58.096Z,95.40
2018-11-25T07:40:27.850Z,95.80
2018-11-25T07:42:57.458Z,95.80
2018-11-25T07:45:30.562Z,95.60
2018-11-25T07:47:56.933Z,95.50
2018-11-25T07:50:26.382Z,95.20
2018-11-25T07:52:57.510Z,95.50
2018-11-25T07:55:27.230Z,95.50
2018-11-25T07:57:58.292Z,95.60
2018-11-25T08:00:28.107Z,95.30
2018-11-25T08:02:57.677Z,95.20
2018-11-25T08:05:27.944Z,95.10
2018-11-25T08:07:57.375Z,95.00
2018-11-25T08:10:26.858Z,95.00
2018-11-25T08:12:56.588Z,94.90
2018-11-25T08:15:25.969Z,95.20
2018-11-25T08:17:55.497Z,95.00
2018-11-25T08:20:25.146Z,94.60
2018-11-25T08:22:54.707Z,94.40
2018-11-25T08:25:24.209Z,94.30
2018-11-25T08:27:53.658Z,94.20
2018-11-25T08:30:24.908Z,94.30
2018-11-25T08:32:55.440Z,94.20
2018-11-25T08:35:24.978Z,94.50
2018-11-25T08:37:54.376Z,94.00
2018-11-25T08:40:24.907Z,94.10
2018-11-25T08:42:54.553Z,93.80
2018-11-25T08:45:24.211Z,93.80
2018-11-25T08:47:53.622Z,93.80
2018-11-25T08:50:23.128Z,93.70
2018-11-25T08:52:53.565Z,93.70
2018-11-25T08:55:24.002Z,94.00
2018-11-25T08:57:53.815Z,94.10
2018-11-25T09:00:27.224Z,94.20
2018-11-25T09:02:56.914Z,93.90
2018-11-25T09:05:26.323Z,93.80
2018-11-25T09:07:55.869Z,94.10
2018-11-25T09:10:25.406Z,94.00
2018-11-25T09:12:56.831Z,94.20
2018-11-25T09:15:28.555Z,93.90
2018-11-25T09:17:58.043Z,93.90
2018-11-25T09:20:27.898Z,93.70
2018-11-25T09:22:57.351Z,93.40
2018-11-25T09:25:27.868Z,93.30
2018-11-25T09:27:57.882Z,93.00
2018-11-25T09:30:28.259Z,93.10
2018-11-25T09:32:57.803Z,93.40
2018-11-25T09:35:27.304Z,93.20
2018-11-25T09:37:56.693Z,93.20
2018-11-25T09:40:27.142Z,93.00
2018-11-25T09:42:56.563Z,93.50
2018-11-25T09:45:26.018Z,93.40
2018-11-25T09:47:55.541Z,93.10
2018-11-25T09:50:25.445Z,92.10
2018-11-25T09:52:55.023Z,92.50
2018-11-25T09:55:26.094Z,92.30
2018-11-25T09:57:57.391Z,91.30
2018-11-25T10:00:30.144Z,91.00
2018-11-25T10:03:00.546Z,90.40
2018-11-25T10:05:29.870Z,90.30
2018-11-25T10:07:59.126Z,90.20
2018-11-25T10:10:28.832Z,90.10
2018-11-25T10:12:58.276Z,90.00
2018-11-25T10:15:28.745Z,90.60
2018-11-25T10:18:00.313Z,91.00
2018-11-25T10:20:34.364Z,91.40
2018-11-25T10:23:09.384Z,91.10
2018-11-25T10:25:40.670Z,91.30
2018-11-25T10:28:10.407Z,91.60
2018-11-25T10:30:40.620Z,91.30
2018-11-25T10:33:11.661Z,91.70
2018-11-25T10:35:42.889Z,90.90
2018-11-25T10:38:12.349Z,90.40
2018-11-25T10:40:41.820Z,90.40
2018-11-25T10:43:11.296Z,90.20
2018-11-25T10:45:40.840Z,90.60
2018-11-25T10:48:10.115Z,90.70
2018-11-25T10:50:39.708Z,90.60
2018-11-25T10:53:09.243Z,90.90
2018-11-25T10:55:38.758Z,90.90
2018-11-25T10:58:08.399Z,90.40
2018-11-25T11:00:43.137Z,90.60
2018-11-25T11:03:17.712Z,90.10
2018-11-25T11:05:52.297Z,90.20
2018-11-25T11:08:21.915Z,90.00
2018-11-25T11:10:51.493Z,89.70
2018-11-25T11:13:21.093Z,90.80
2018-11-25T11:15:50.572Z,90.40
2018-11-25T11:18:19.990Z,90.80
2018-11-25T11:20:49.664Z,90.70
2018-11-25T11:23:19.300Z,90.90
2018-11-25T11:25:48.802Z,91.20
2018-11-25T11:28:18.417Z,91.10
2018-11-25T11:30:48.003Z,91.70
2018-11-25T11:33:17.280Z,90.90
2018-11-25T11:35:46.847Z,91.00
2018-11-25T11:38:16.265Z,90.80
2018-11-25T11:40:45.702Z,91.30
2018-11-25T11:43:15.591Z,90.50
2018-11-25T11:45:45.030Z,90.30
2018-11-25T11:48:14.548Z,91.40
2018-11-25T11:50:43.962Z,90.70
2018-11-25T11:53:13.202Z,90.50
2018-11-25T11:55:43.498Z,90.30
2018-11-25T11:58:12.887Z,90.20
2018-11-25T12:00:42.554Z,88.50
2018-11-25T12:03:12.137Z,89.40
2018-11-25T12:05:41.706Z,87.00
2018-11-25T12:08:11.444Z,85.30
2018-11-25T12:10:40.683Z,83.20
2018-11-25T12:13:10.182Z,81.60
2018-11-25T12:15:39.443Z,80.90
2018-11-25T12:18:08.951Z,84.30
2018-11-25T12:20:38.234Z,84.00
2018-11-25T12:23:08.686Z,84.60
2018-11-25T12:25:37.963Z,82.50
2018-11-25T12:28:07.694Z,82.30
2018-11-25T12:30:37.289Z,79.30
2018-11-25T12:33:06.742Z,80.20
2018-11-25T12:35:36.034Z,77.20
2018-11-25T12:38:05.665Z,73.50
2018-11-25T12:40:35.261Z,71.10
2018-11-25T12:43:05.324Z,76.10
2018-11-25T12:45:34.783Z,77.80
2018-11-25T12:48:04.218Z,74.60
2018-11-25T12:50:33.699Z,74.80
2018-11-25T12:53:03.237Z,78.60
2018-11-25T12:55:32.784Z,78.60
2018-11-25T12:58:02.323Z,79.10
2018-11-25T13:00:33.403Z,81.00
2018-11-25T13:03:02.996Z,82.10
2018-11-25T13:05:32.584Z,83.30
2018-11-25T13:08:02.121Z,83.90
2018-11-25T13:10:31.605Z,85.10
2018-11-25T13:13:02.150Z,82.40
2018-11-25T13:15:31.632Z,78.30
2018-11-25T13:18:01.203Z,78.60
2018-11-25T13:20:30.839Z,78.60
2018-11-25T13:23:00.249Z,81.50
2018-11-25T13:25:29.598Z,84.30
2018-11-25T13:27:59.101Z,85.10
2018-11-25T13:30:29.958Z,86.00
2018-11-25T13:33:00.467Z,88.00
2018-11-25T13:35:31.308Z,89.10
2018-11-25T13:38:00.896Z,88.10
2018-11-25T13:40:30.417Z,88.70
2018-11-25T13:42:59.925Z,88.20
2018-11-25T13:45:29.366Z,87.70
2018-11-25T13:47:58.882Z,88.50
2018-11-25T13:50:28.432Z,87.70
2018-11-25T13:52:57.946Z,87.70
2018-11-25T13:55:28.427Z,88.20
2018-11-25T13:57:58.118Z,88.70
2018-11-25T14:00:32.388Z,88.20
2018-11-25T14:03:02.255Z,88.80
2018-11-25T14:05:31.845Z,88.90
2018-11-25T14:08:01.270Z,89.40
2018-11-25T14:10:33.230Z,90.10
2018-11-25T14:13:02.983Z,88.50
2018-11-25T14:15:32.419Z,88.30
2018-11-25T14:18:01.838Z,89.80
2018-11-25T14:20:31.454Z,90.00
2018-11-25T14:23:01.024Z,89.90
2018-11-25T14:25:30.605Z,90.30
2018-11-25T14:28:02.193Z,90.10
2018-11-25T14:30:32.542Z,90.20
2018-11-25T14:33:02.115Z,90.40
2018-11-25T14:35:31.945Z,90.70
2018-11-25T14:38:01.466Z,90.60
2018-11-25T14:40:31.030Z,91.00
2018-11-25T14:43:00.521Z,91.10
2018-11-25T14:45:30.076Z,91.10
2018-11-25T14:47:59.721Z,91.30
2018-11-25T14:50:29.530Z,91.20
2018-11-25T14:52:59.053Z,91.40
2018-11-25T14:55:29.393Z,91.40
2018-11-25T14:57:58.832Z,91.40
2018-11-25T15:00:28.398Z,91.20
2018-11-25T15:03:00.027Z,91.40
2018-11-25T15:05:39.763Z,91.60
2018-11-25T15:08:10.407Z,91.80
2018-11-25T15:10:39.946Z,91.90
2018-11-25T15:13:09.758Z,91.70
2018-11-25T15:15:39.262Z,91.90
2018-11-25T15:18:09.300Z,92.10
2018-11-25T15:20:39.109Z,92.10
2018-11-25T15:23:10.217Z,92.00
2018-11-25T15:25:43.239Z,91.70
2018-11-25T15:28:12.780Z,92.10
2018-11-25T15:30:42.395Z,91.90
2018-11-25T15:33:11.963Z,92.10
2018-11-25T15:35:41.462Z,92.30
2018-11-25T15:38:10.986Z,92.30
2018-11-25T15:40:40.975Z,92.40
2018-11-25T15:43:11.415Z,92.40
2018-11-25T15:45:41.121Z,92.30
2018-11-25T15:48:15.017Z,92.10
2018-11-25T15:50:44.416Z,92.20
2018-11-25T15:53:13.981Z,92.30
2018-11-25T15:55:44.380Z,92.40
2018-11-25T15:58:14.351Z,92.50
2018-11-25T16:00:43.847Z,92.60
2018-11-25T16:03:15.351Z,92.70
2018-11-25T16:05:49.232Z,92.90
2018-11-25T16:08:19.284Z,93.20
2018-11-25T16:10:49.364Z,93.30
2018-11-25T16:13:19.327Z,93.50
2018-11-25T16:15:49.926Z,93.60
2018-11-25T16:18:20.678Z,93.50
2018-11-25T16:20:50.975Z,93.60
2018-11-25T16:23:21.042Z,93.70
2018-11-25T16:25:53.506Z,94.10
2018-11-25T16:28:29.009Z,94.30
2018-11-25T16:30:59.348Z,94.40
2018-11-25T16:33:29.427Z,94.40
2018-11-25T16:35:59.330Z,94.80
2018-11-25T16:38:30.283Z,94.40
2018-11-25T16:41:00.920Z,94.60
2018-11-25T16:43:31.667Z,95.30
2018-11-25T16:46:02.398Z,96.10
2018-11-25T16:48:32.478Z,96.10
2018-11-25T16:51:03.490Z,95.10
2018-11-25T16:53:33.532Z,95.50
2018-11-25T16:56:03.514Z,95.50
2018-11-25T16:58:33.476Z,95.60
2018-11-25T17:01:09.770Z,95.60
2018-11-25T17:03:34.642Z,95.40
2018-11-25T17:06:05.174Z,95.30
2018-11-25T17:08:37.449Z,95.30
2018-11-25T17:11:08.615Z,95.20
2018-11-25T17:13:40.120Z,95.10
2018-11-25T17:18:39.344Z,95.10
2018-11-25T17:21:11.554Z,95.00
2018-11-25T17:23:42.111Z,95.10
2018-11-25T17:26:12.700Z,95.00
2018-11-25T17:28:43.343Z,94.80
2018-11-25T17:31:14.047Z,94.90
2018-11-25T17:33:44.773Z,94.90
2018-11-25T17:36:15.406Z,94.90
2018-11-25T17:38:45.952Z,94.80
2018-11-25T17:41:16.685Z,94.70
2018-11-25T17:43:47.330Z,94.60
2018-11-25T17:46:18.248Z,94.50
2018-11-25T17:48:49.141Z,94.60
2018-11-25T17:51:19.816Z,94.60
2018-11-25T17:53:50.469Z,94.60
2018-11-25T17:56:21.103Z,94.60
2018-11-25T17:58:51.986Z,94.50
2018-11-25T18:01:34.557Z,94.50
2018-11-25T18:07:06.105Z,95.00
2018-11-25T18:09:36.000Z,95.00
2018-11-25T18:12:05.717Z,95.10
2018-11-25T18:14:35.230Z,95.00
2018-11-25T18:17:04.850Z,95.10
2018-11-25T18:19:34.443Z,94.90
2018-11-25T18:22:17.016Z,94.70
2018-11-25T18:24:46.502Z,94.80
2018-11-25T18:27:16.267Z,95.10
2018-11-25T18:29:45.803Z,95.00
2018-11-25T18:32:15.480Z,94.90
2018-11-25T18:34:44.847Z,95.10
2018-11-25T18:37:14.619Z,95.20
2018-11-25T18:39:44.731Z,95.20
2018-11-25T18:42:14.350Z,95.30
2018-11-25T18:44:43.969Z,95.20
2018-11-25T18:47:13.409Z,95.10
2018-11-25T18:49:42.909Z,95.40
2018-11-25T18:52:12.752Z,95.40
2018-11-25T18:54:47.470Z,95.40
2018-11-25T18:57:17.138Z,95.50
2018-11-25T18:59:46.804Z,95.50
2018-11-25T19:02:20.710Z,95.50
2018-11-25T19:04:51.152Z,95.30
2018-11-25T19:07:20.602Z,95.30
2018-11-25T19:09:50.029Z,95.20
2018-11-25T19:12:19.789Z,95.20
2018-11-25T19:14:49.437Z,95.10
2018-11-25T19:17:18.878Z,94.70
2018-11-25T19:19:48.507Z,94.80
2018-11-25T19:22:18.098Z,94.70
2018-11-25T19:24:47.666Z,94.40
2018-11-25T19:27:17.335Z,94.60
2018-11-25T19:29:46.853Z,94.30
2018-11-25T19:32:16.318Z,94.40
2018-11-25T19:34:45.836Z,94.60
2018-11-25T19:37:20.969Z,94.40
2018-11-25T19:39:50.573Z,94.50
2018-11-25T19:42:20.442Z,94.10
2018-11-25T19:44:50.422Z,94.10
2018-11-25T19:47:20.059Z,94.20
2018-11-25T19:49:50.042Z,94.20
2018-11-25T19:52:19.780Z,94.30
2018-11-25T19:54:49.688Z,94.10
2018-11-25T19:57:19.963Z,94.00
2018-11-25T19:59:50.102Z,94.10
2018-11-25T20:02:19.945Z,93.90
2018-11-25T20:04:49.938Z,94.00
2018-11-25T20:07:20.070Z,93.90
2018-11-25T20:09:50.446Z,94.00
2018-11-25T20:12:24.426Z,93.70
2018-11-25T20:14:54.014Z,93.60
2018-11-25T20:17:29.056Z,93.70
2018-11-25T20:20:00.538Z,93.70
2018-11-25T20:22:30.664Z,93.60
2018-11-25T20:25:00.544Z,93.70
2018-11-25T20:27:35.358Z,93.70
2018-11-25T20:30:05.968Z,93.90
2018-11-25T20:32:40.857Z,93.70
2018-11-25T20:35:10.518Z,93.60
2018-11-25T20:37:45.408Z,93.70
2018-11-25T20:40:15.156Z,93.30
2018-11-25T20:42:44.772Z,93.40
2018-11-25T20:45:20.332Z,93.60
2018-11-25T21:00:54.129Z,93.60
2018-11-25T21:03:23.727Z,93.30
2018-11-25T21:05:53.117Z,92.80
2018-11-25T21:08:22.593Z,92.80
2018-11-25T21:10:52.185Z,92.70
2018-11-25T21:13:21.738Z,92.60
2018-11-25T21:15:51.195Z,92.60
2018-11-25T21:18:20.818Z,92.80
2018-11-25T21:20:51.304Z,93.00
2018-11-25T21:23:19.845Z,92.90
2018-11-25T21:25:49.276Z,93.10
2018-11-25T21:28:18.832Z,93.00
2018-11-25T21:30:48.352Z,93.10
2018-11-25T21:33:17.863Z,93.10
2018-11-25T21:35:47.414Z,93.20
2018-11-25T21:38:16.857Z,93.30
2018-11-25T21:40:46.353Z,93.30
2018-11-25T21:43:15.793Z,93.30
2018-11-25T21:45:45.308Z,93.20
2018-11-25T21:48:14.875Z,93.40
2018-11-25T21:50:44.365Z,93.30
2018-11-25T21:53:13.900Z,93.30
2018-11-25T21:55:43.325Z,93.20
2018-11-25T21:58:12.771Z,93.40
2018-11-25T22:00:42.297Z,93.60
2018-11-25T22:03:11.825Z,93.60
2018-11-25T22:05:41.274Z,93.60
2018-11-25T22:08:10.801Z,93.70
2018-11-25T22:10:40.426Z,93.60
2018-11-25T22:13:10.752Z,93.70
2018-11-25T22:15:40.270Z,93.90
2018-11-25T22:18:09.674Z,93.80
2018-11-25T22:20:39.355Z,93.70
2018-11-25T22:23:08.866Z,93.80
2018-11-25T22:25:38.368Z,93.80
2018-11-25T22:28:08.101Z,93.90
2018-11-25T22:30:37.493Z,93.90
2018-11-25T22:33:07.394Z,93.90
2018-11-25T22:35:37.188Z,94.00
2018-11-25T22:38:07.090Z,93.80
2018-11-25T22:40:36.614Z,93.90
2018-11-25T22:43:06.045Z,94.10
2018-11-25T22:45:35.544Z,94.00
2018-11-25T22:48:04.897Z,93.80
2018-11-25T22:50:34.413Z,93.90
2018-11-25T22:53:04.023Z,94.10
2018-11-25T22:55:34.567Z,94.40
2018-11-25T22:58:04.087Z,94.50
2018-11-25T23:00:34.985Z,94.90
2018-11-25T23:03:06.009Z,94.70
2018-11-25T23:05:46.445Z,94.90
2018-11-25T23:08:16.464Z,95.20
2018-11-25T23:10:45.924Z,95.30
2018-11-25T23:13:16.263Z,95.40
2018-11-25T23:15:45.951Z,95.50
2018-11-25T23:18:15.889Z,95.60
2018-11-25T23:20:46.644Z,95.70
2018-11-25T23:23:16.213Z,95.80
2018-11-25T23:25:47.281Z,95.90
2018-11-25T23:28:17.569Z,95.60
2018-11-25T23:30:48.468Z,96.00
2018-11-25T23:33:20.204Z,96.10
2018-11-25T23:35:49.933Z,96.10
2018-11-25T23:38:19.510Z,96.10
2018-11-25T23:40:49.105Z,96.20
2018-11-25T23:43:18.682Z,96.20
2018-11-25T23:45:48.234Z,96.10
2018-11-25T23:48:17.710Z,96.10
2018-11-25T23:50:47.283Z,95.90
2018-11-25T23:53:16.800Z,96.00
2018-11-25T23:55:46.236Z,96.10
2018-11-25T23:58:15.968Z,96.10
